Richland, Mississippi
Current Conditions -  °F | °C
As of 9:54 PM on Sunday 23 Nov 2014 (Local Time) from KJAN Reporting Station
Clear Clear  
Wind Chill: 64°   Ceiling: Unl
Heat Index: 64°   Visibility: 10mi
Dew Point: 59°   Wind: 15mph
Humidity: 84%   Direction: 200°SSW
Pressure: 29.64"   Gusts: 23mph
Location:  32.2326°N, 90.165°W
Report Text: KJAN 240354Z 20013G20KT 10SM CLR 18/15 A2964 RMK AO2 SLP032 T01780150
Loading
Personal Weather Stations






























Interactive Weather Map New forecast layout! Learn more

10-Day Weather Forecast

Advertisements
Track Severe Weather on mobile